MSC Regina — 3FGF9 — position and weather

sailwx.info

Track history (hours):
 
Tides and Currents Weather Stations Pressure Air Temp Water Temp Dewpoint Dewpoint Depression Visibility Wind Speed Wind Dir Waves Ship Positions

MSC Regina

Last reported at 2016-Jul-25 22:29 UTC. Time now 2016-Jul-27 23:06 UTC.
Position N 38°55' W 011°18'.

Length 259 m; draft 10.3 m.

Type: Ship (hazmat cat A). MMSI: 357331980.

Date/timePositionNaut miles runAvg speedWind from/ knotsBaromVisibWave heightAir tempDewpointWater temp
2016-Jul-25 22:29N 38°55' W 011°18'3518.3
2016-Jul-25 20:33N 38°38' W 010°38'1818.4
2016-Jul-25 19:33N 38°30' W 010°17'1818.1
2016-Jul-25 18:33N 38°21' W 009°57'1818.4
2016-Jul-25 17:33N 38°13' W 009°36'1818.3
2016-Jul-25 16:33N 38°04' W 009°15'1818.5
2016-Jul-25 15:33N 37°55' W 008°55'4 3.8
2016-Jul-25 14:33N 37°56' W 008°51'0 0.0
2016-Jul-25 13:34N 37°56' W 008°51'0 0.0
2016-Jul-25 12:34N 37°56' W 008°51'0 0.0
2016-Jul-25 11:33N 37°56' W 008°51'0 0.0
2016-Jul-25 10:27N 37°56' W 008°51'0 0.0
2016-Jul-25 09:33N 37°56' W 008°51'0 0.0
2016-Jul-25 08:33N 37°56' W 008°51'0 0.0
2016-Jul-25 07:33N 37°56' W 008°51'0 0.0
2016-Jul-25 06:33N 37°56' W 008°51'0 0.0
2016-Jul-25 05:27N 37°56' W 008°51'0 0.0
2016-Jul-25 04:33N 37°56' W 008°51'0 0.0
2016-Jul-25 03:33N 37°56' W 008°51'0 0.0
2016-Jul-25 02:33N 37°56' W 008°51'0 0.0
2016-Jul-25 01:33N 37°56' W 008°51'0 0.1
2016-Jul-25 00:33N 37°56' W 008°51'6 5.5
2016-Jul-24 23:33N 37°50' W 008°53'1414.1
2016-Jul-24 22:33N 37°38' W 009°00'1414.0
2016-Jul-24 21:34N 37°25' W 009°08'1615.7
2016-Jul-24 20:33N 37°11' W 009°16'1616.0
2016-Jul-24 19:33N 36°55' W 009°19'1616.1
2016-Jul-24 18:32N 36°43' W 009°06'1716.8
2016-Jul-24 17:32N 36°38' W 008°46'1817.4
2016-Jul-24 16:30N 36°32' W 008°24'1717.5
2016-Jul-24 15:30N 36°27' W 008°03'3917.6
2016-Jul-24 13:17N 36°15' W 007°17'8217.4
2016-Jul-24 08:33N 35°58' W 005°38'1616.3
2016-Jul-24 07:33N 36°02' W 005°18'12217.5
2016-Jul-24 00:33N 36°21' W 002°48'1817.8
2016-Jul-23 23:33N 36°24' W 002°26'3517.3
2016-Jul-23 21:33N 36°42' W 001°50'1818.1
2016-Jul-23 20:34N 36°54' W 001°33'3718.3
2016-Jul-23 18:33N 37°18' W 000°57'1818.0
2016-Jul-23 17:33N 37°30' W 000°40'1717.8
2016-Jul-23 16:34N 37°43' W 000°26'1817.7
2016-Jul-23 15:33N 37°58' W 000°15'13717.2
2016-Jul-23 07:33N 39°42' E 001°40'1717.5
2016-Jul-23 06:33N 39°53' E 001°58'3416.8
2016-Jul-23 04:33N 40°13' E 002°33'1716.9
2016-Jul-23 03:33N 40°24' E 002°51'1716.6
2016-Jul-23 02:33N 40°34' E 003°08'1716.7
2016-Jul-23 01:33N 40°44' E 003°25'1716.6
2016-Jul-23 00:33N 40°54' E 003°43'10317.2
2016-Jul-22 18:33N 41°57' E 005°32'2417.6
2016-Jul-22 17:10N 42°12' E 005°58'1217.2
2016-Jul-22 16:27N 42°20' E 006°11'1516.7
2016-Jul-22 15:34N 42°29' E 006°27'1716.7
2016-Jul-22 14:33N 42°39' E 006°45'1716.9
2016-Jul-22 13:33N 42°50' E 007°04'1716.6
2016-Jul-22 12:33N 42°60' E 007°21'1716.8
2016-Jul-22 11:33N 43°14' E 007°34'1817.6
2016-Jul-22 10:33N 43°28' E 007°49'1717.3
2016-Jul-22 09:33N 43°42' E 008°03'2017.4
2016-Jul-22 08:24N 43°58' E 008°18'1517.3
2016-Jul-22 07:34N 44°10' E 008°30'19 6.3
2016-Jul-22 04:32N 44°25' E 008°47'0 0.0
2016-Jul-22 03:32N 44°25' E 008°47'0 0.0
2016-Jul-22 02:32N 44°25' E 008°47'0 0.0
2016-Jul-22 01:32N 44°25' E 008°47'0 0.0
2016-Jul-22 00:32N 44°25' E 008°47'0 0.0
2016-Jul-21 23:32N 44°25' E 008°47'0 0.0
2016-Jul-21 22:32N 44°25' E 008°47'0 0.0
2016-Jul-21 21:32N 44°25' E 008°47'0 0.0
2016-Jul-21 20:32N 44°25' E 008°47'1 0.9
2016-Jul-21 19:33N 44°25' E 008°46'9 9.4
2016-Jul-21 18:33N 44°16' E 008°49'1211.9
2016-Jul-21 17:33N 44°07' E 008°60'1110.9
2016-Jul-21 16:33N 43°59' E 009°10'1111.0
2016-Jul-21 15:33N 43°51' E 009°21'1111.1
2016-Jul-21 14:33N 43°43' E 009°32'1312.6
2016-Jul-21 13:33N 43°34' E 009°44'1212.4
2016-Jul-21 12:33N 43°30' E 009°60'1312.5
2016-Jul-21 11:33N 43°32' E 010°17'2 2.4
2016-Jul-21 10:31N 43°35' E 010°18'0 0.0
2016-Jul-21 09:31N 43°35' E 010°18'0 0.0
2016-Jul-21 08:28N 43°35' E 010°18'0 0.0
2016-Jul-21 07:31N 43°35' E 010°18'0 0.0
2016-Jul-21 06:28N 43°35' E 010°18'0 0.0
2016-Jul-21 05:31N 43°35' E 010°18'0 0.0
2016-Jul-21 04:32N 43°35' E 010°18'4 3.8
2016-Jul-21 03:33N 43°31' E 010°16'6 6.3
2016-Jul-21 02:33N 43°27' E 010°10'1312.9
2016-Jul-21 01:34N 43°18' E 009°57'1414.3
2016-Jul-21 00:33N 43°08' E 009°42'1413.6
2016-Jul-20 23:33N 42°55' E 009°41'1515.4
2016-Jul-20 22:33N 42°40' E 009°46'3115.5
2016-Jul-20 20:33N 42°12' E 010°05'2116.4
2016-Jul-20 19:17N 41°59' E 010°26'1216.6
2016-Jul-20 18:32N 41°51' E 010°39'1616.3
2016-Jul-20 17:33N 41°40' E 010°55'1616.2
2016-Jul-20 16:34N 41°30' E 011°12'1815.8
2016-Jul-20 15:25N 41°18' E 011°30'1815.5
2016-Jul-20 14:17N 41°07' E 011°48'1115.2
2016-Jul-20 13:33N 40°60' E 011°60'1615.9
2016-Jul-20 12:34N 40°50' E 012°15'1616.5
2016-Jul-20 11:34N 40°39' E 012°32'1716.6
2016-Jul-20 10:33N 40°29' E 012°49'1616.6
2016-Jul-20 09:34N 40°18' E 013°05'1716.7
2016-Jul-20 08:33N 40°07' E 013°22'1616.4
2016-Jul-20 07:33N 39°57' E 013°39'1716.3
2016-Jul-20 06:32N 39°46' E 013°56'1616.6
2016-Jul-20 05:33N 39°36' E 014°12'4117.4
2016-Jul-20 03:11N 39°09' E 014°52'1217.6
2016-Jul-20 02:30N 39°01' E 015°04'1816.9
2016-Jul-20 01:27N 38°50' E 015°22'1516.9
2016-Jul-20 00:33N 38°40' E 015°36'1716.9
2016-Jul-19 23:34N 38°28' E 015°52'2 2.0
2016-Jul-19 22:32N 38°28' E 015°54'0 0.0
2016-Jul-19 21:32N 38°28' E 015°54'0 0.0
2016-Jul-19 20:32N 38°28' E 015°54'0 0.0
2016-Jul-19 19:32N 38°28' E 015°54'0 0.0
2016-Jul-19 18:29N 38°28' E 015°54'0 0.0
2016-Jul-19 17:32N 38°28' E 015°54'0 0.0
2016-Jul-19 16:32N 38°28' E 015°54'0 0.0
2016-Jul-19 15:32N 38°28' E 015°54'0 0.0
2016-Jul-19 14:29N 38°28' E 015°54'0 0.0
2016-Jul-19 13:32N 38°28' E 015°54'0 0.0
2016-Jul-19 12:26N 38°28' E 015°54'0 0.0
2016-Jul-19 11:32N 38°28' E 015°54'0 0.0
2016-Jul-19 10:32N 38°28' E 015°54'0 0.0
2016-Jul-19 09:32N 38°28' E 015°54'0 0.0
2016-Jul-19 08:32N 38°28' E 015°54'0 0.0
2016-Jul-19 07:32N 38°28' E 015°54'0 0.0
2016-Jul-19 04:32N 38°28' E 015°54'0 0.0
2016-Jul-19 03:32N 38°28' E 015°54'0 0.0
2016-Jul-19 02:32N 38°28' E 015°54'0 0.0
2016-Jul-19 01:29N 38°28' E 015°54'0 0.0
2016-Jul-19 00:29N 38°28' E 015°54'0 0.0
2016-Jul-18 23:29N 38°28' E 015°54'0 0.0
2016-Jul-18 22:05N 38°28' E 015°54'0 0.0
2016-Jul-18 21:32N 38°28' E 015°54'0 0.0
2016-Jul-18 20:32N 38°28' E 015°54'0 0.0
2016-Jul-18 19:32N 38°28' E 015°54'0 0.0
2016-Jul-18 18:32N 38°28' E 015°54'0 0.0
2016-Jul-18 17:32N 38°28' E 015°54'0 0.0
2016-Jul-18 16:32N 38°28' E 015°54'0 0.0
2016-Jul-18 15:32N 38°28' E 015°54'5 5.3
2016-Jul-18 14:33N 38°27' E 015°48'8 7.8
2016-Jul-18 13:32N 38°25' E 015°38'9 9.5
2016-Jul-18 12:33N 38°23' E 015°27'10 9.5
2016-Jul-18 11:33N 38°21' E 015°15'9 9.4
2016-Jul-18 10:33N 38°19' E 015°03'9 9.4
2016-Jul-18 09:33N 38°18' E 014°51'9 9.2
2016-Jul-18 08:33N 38°18' E 014°39'9 8.9
2016-Jul-18 07:33N 38°18' E 014°28'27 8.6
2016-Jul-18 04:23N 38°18' E 013°53'7 8.5
2016-Jul-18 03:33N 38°19' E 013°44'8 8.5
2016-Jul-18 02:33N 38°19' E 013°34'9 8.8
2016-Jul-18 01:33N 38°19' E 013°22'9 8.8
2016-Jul-18 00:33N 38°19' E 013°11'9 8.9
2016-Jul-17 23:33N 38°17' E 013°00'9 8.6
2016-Jul-17 22:33N 38°15' E 012°49'9 8.4
2016-Jul-17 21:31N 38°14' E 012°38'8 8.3
2016-Jul-17 20:33N 38°13' E 012°28'10 8.5
2016-Jul-17 19:23N 38°12' E 012°16'8 9.0
2016-Jul-17 18:30N 38°11' E 012°06'98 8.9
2016-Jul-17 07:31N 37°58' E 010°03'8 8.6
2016-Jul-17 06:32N 37°57' E 009°52'27 8.9
2016-Jul-17 03:33N 37°53' E 009°19'10 9.0
2016-Jul-17 02:30N 37°51' E 009°07'9 8.8
2016-Jul-17 01:31N 37°51' E 008°56'  
Track history (hours):
 
Tides and Currents Weather Stations Pressure Air Temp Water Temp Dewpoint Dewpoint Depression Visibility Wind Speed Wind Dir Waves Ship Positions

MSC Regina

Last reported at 2016-Jul-25 22:29 UTC. Time now 2016-Jul-27 23:06 UTC.
Position N 38°55' W 011°18'.

Length 259 m; draft 10.3 m.

Type: Ship (hazmat cat A). MMSI: 357331980.

Date/timePositionNaut miles runAvg speedWind from/ knotsBaromVisibWave heightAir tempDewpointWater temp
2016-Jul-25 22:29N 38°55' W 011°18'3518.3
2016-Jul-25 20:33N 38°38' W 010°38'1818.4
2016-Jul-25 19:33N 38°30' W 010°17'1818.1
2016-Jul-25 18:33N 38°21' W 009°57'1818.4
2016-Jul-25 17:33N 38°13' W 009°36'1818.3
2016-Jul-25 16:33N 38°04' W 009°15'1818.5
2016-Jul-25 15:33N 37°55' W 008°55'4 3.8
2016-Jul-25 14:33N 37°56' W 008°51'0 0.0
2016-Jul-25 13:34N 37°56' W 008°51'0 0.0
2016-Jul-25 12:34N 37°56' W 008°51'0 0.0
2016-Jul-25 11:33N 37°56' W 008°51'0 0.0
2016-Jul-25 10:27N 37°56' W 008°51'0 0.0
2016-Jul-25 09:33N 37°56' W 008°51'0 0.0
2016-Jul-25 08:33N 37°56' W 008°51'0 0.0
2016-Jul-25 07:33N 37°56' W 008°51'0 0.0
2016-Jul-25 06:33N 37°56' W 008°51'0 0.0
2016-Jul-25 05:27N 37°56' W 008°51'0 0.0
2016-Jul-25 04:33N 37°56' W 008°51'0 0.0
2016-Jul-25 03:33N 37°56' W 008°51'0 0.0
2016-Jul-25 02:33N 37°56' W 008°51'0 0.0
2016-Jul-25 01:33N 37°56' W 008°51'0 0.1
2016-Jul-25 00:33N 37°56' W 008°51'6 5.5
2016-Jul-24 23:33N 37°50' W 008°53'1414.1
2016-Jul-24 22:33N 37°38' W 009°00'1414.0
2016-Jul-24 21:34N 37°25' W 009°08'1615.7
2016-Jul-24 20:33N 37°11' W 009°16'1616.0
2016-Jul-24 19:33N 36°55' W 009°19'1616.1
2016-Jul-24 18:32N 36°43' W 009°06'1716.8
2016-Jul-24 17:32N 36°38' W 008°46'1817.4
2016-Jul-24 16:30N 36°32' W 008°24'1717.5
2016-Jul-24 15:30N 36°27' W 008°03'3917.6
2016-Jul-24 13:17N 36°15' W 007°17'8217.4
2016-Jul-24 08:33N 35°58' W 005°38'1616.3
2016-Jul-24 07:33N 36°02' W 005°18'12217.5
2016-Jul-24 00:33N 36°21' W 002°48'1817.8
2016-Jul-23 23:33N 36°24' W 002°26'3517.3
2016-Jul-23 21:33N 36°42' W 001°50'1818.1
2016-Jul-23 20:34N 36°54' W 001°33'3718.3
2016-Jul-23 18:33N 37°18' W 000°57'1818.0
2016-Jul-23 17:33N 37°30' W 000°40'1717.8
2016-Jul-23 16:34N 37°43' W 000°26'1817.7
2016-Jul-23 15:33N 37°58' W 000°15'13717.2
2016-Jul-23 07:33N 39°42' E 001°40'1717.5
2016-Jul-23 06:33N 39°53' E 001°58'3416.8
2016-Jul-23 04:33N 40°13' E 002°33'1716.9
2016-Jul-23 03:33N 40°24' E 002°51'1716.6
2016-Jul-23 02:33N 40°34' E 003°08'1716.7
2016-Jul-23 01:33N 40°44' E 003°25'1716.6
2016-Jul-23 00:33N 40°54' E 003°43'10317.2
2016-Jul-22 18:33N 41°57' E 005°32'2417.6
2016-Jul-22 17:10N 42°12' E 005°58'1217.2
2016-Jul-22 16:27N 42°20' E 006°11'1516.7
2016-Jul-22 15:34N 42°29' E 006°27'1716.7
2016-Jul-22 14:33N 42°39' E 006°45'1716.9
2016-Jul-22 13:33N 42°50' E 007°04'1716.6
2016-Jul-22 12:33N 42°60' E 007°21'1716.8
2016-Jul-22 11:33N 43°14' E 007°34'1817.6
2016-Jul-22 10:33N 43°28' E 007°49'1717.3
2016-Jul-22 09:33N 43°42' E 008°03'2017.4
2016-Jul-22 08:24N 43°58' E 008°18'1517.3
2016-Jul-22 07:34N 44°10' E 008°30'19 6.3
2016-Jul-22 04:32N 44°25' E 008°47'0 0.0
2016-Jul-22 03:32N 44°25' E 008°47'0 0.0
2016-Jul-22 02:32N 44°25' E 008°47'0 0.0
2016-Jul-22 01:32N 44°25' E 008°47'0 0.0
2016-Jul-22 00:32N 44°25' E 008°47'0 0.0
2016-Jul-21 23:32N 44°25' E 008°47'0 0.0
2016-Jul-21 22:32N 44°25' E 008°47'0 0.0
2016-Jul-21 21:32N 44°25' E 008°47'0 0.0
2016-Jul-21 20:32N 44°25' E 008°47'1 0.9
2016-Jul-21 19:33N 44°25' E 008°46'9 9.4
2016-Jul-21 18:33N 44°16' E 008°49'1211.9
2016-Jul-21 17:33N 44°07' E 008°60'1110.9
2016-Jul-21 16:33N 43°59' E 009°10'1111.0
2016-Jul-21 15:33N 43°51' E 009°21'1111.1
2016-Jul-21 14:33N 43°43' E 009°32'1312.6
2016-Jul-21 13:33N 43°34' E 009°44'1212.4
2016-Jul-21 12:33N 43°30' E 009°60'1312.5
2016-Jul-21 11:33N 43°32' E 010°17'2 2.4
2016-Jul-21 10:31N 43°35' E 010°18'0 0.0
2016-Jul-21 09:31N 43°35' E 010°18'0 0.0
2016-Jul-21 08:28N 43°35' E 010°18'0 0.0
2016-Jul-21 07:31N 43°35' E 010°18'0 0.0
2016-Jul-21 06:28N 43°35' E 010°18'0 0.0
2016-Jul-21 05:31N 43°35' E 010°18'0 0.0
2016-Jul-21 04:32N 43°35' E 010°18'4 3.8
2016-Jul-21 03:33N 43°31' E 010°16'6 6.3
2016-Jul-21 02:33N 43°27' E 010°10'1312.9
2016-Jul-21 01:34N 43°18' E 009°57'1414.3
2016-Jul-21 00:33N 43°08' E 009°42'1413.6
2016-Jul-20 23:33N 42°55' E 009°41'1515.4
2016-Jul-20 22:33N 42°40' E 009°46'3115.5
2016-Jul-20 20:33N 42°12' E 010°05'2116.4
2016-Jul-20 19:17N 41°59' E 010°26'1216.6
2016-Jul-20 18:32N 41°51' E 010°39'1616.3
2016-Jul-20 17:33N 41°40' E 010°55'1616.2
2016-Jul-20 16:34N 41°30' E 011°12'1815.8
2016-Jul-20 15:25N 41°18' E 011°30'1815.5
2016-Jul-20 14:17N 41°07' E 011°48'1115.2
2016-Jul-20 13:33N 40°60' E 011°60'1615.9
2016-Jul-20 12:34N 40°50' E 012°15'1616.5
2016-Jul-20 11:34N 40°39' E 012°32'1716.6
2016-Jul-20 10:33N 40°29' E 012°49'1616.6
2016-Jul-20 09:34N 40°18' E 013°05'1716.7
2016-Jul-20 08:33N 40°07' E 013°22'1616.4
2016-Jul-20 07:33N 39°57' E 013°39'1716.3
2016-Jul-20 06:32N 39°46' E 013°56'1616.6
2016-Jul-20 05:33N 39°36' E 014°12'4117.4
2016-Jul-20 03:11N 39°09' E 014°52'1217.6
2016-Jul-20 02:30N 39°01' E 015°04'1816.9
2016-Jul-20 01:27N 38°50' E 015°22'1516.9
2016-Jul-20 00:33N 38°40' E 015°36'1716.9
2016-Jul-19 23:34N 38°28' E 015°52'2 2.0
2016-Jul-19 22:32N 38°28' E 015°54'0 0.0
2016-Jul-19 21:32N 38°28' E 015°54'0 0.0
2016-Jul-19 20:32N 38°28' E 015°54'0 0.0
2016-Jul-19 19:32N 38°28' E 015°54'0 0.0
2016-Jul-19 18:29N 38°28' E 015°54'0 0.0
2016-Jul-19 17:32N 38°28' E 015°54'0 0.0
2016-Jul-19 16:32N 38°28' E 015°54'0 0.0
2016-Jul-19 15:32N 38°28' E 015°54'0 0.0
2016-Jul-19 14:29N 38°28' E 015°54'0 0.0
2016-Jul-19 13:32N 38°28' E 015°54'0 0.0
2016-Jul-19 12:26N 38°28' E 015°54'0 0.0
2016-Jul-19 11:32N 38°28' E 015°54'0 0.0
2016-Jul-19 10:32N 38°28' E 015°54'0 0.0
2016-Jul-19 09:32N 38°28' E 015°54'0 0.0
2016-Jul-19 08:32N 38°28' E 015°54'0 0.0
2016-Jul-19 07:32N 38°28' E 015°54'0 0.0
2016-Jul-19 04:32N 38°28' E 015°54'0 0.0
2016-Jul-19 03:32N 38°28' E 015°54'0 0.0
2016-Jul-19 02:32N 38°28' E 015°54'0 0.0
2016-Jul-19 01:29N 38°28' E 015°54'0 0.0
2016-Jul-19 00:29N 38°28' E 015°54'0 0.0
2016-Jul-18 23:29N 38°28' E 015°54'0 0.0
2016-Jul-18 22:05N 38°28' E 015°54'0 0.0
2016-Jul-18 21:32N 38°28' E 015°54'0 0.0
2016-Jul-18 20:32N 38°28' E 015°54'0 0.0
2016-Jul-18 19:32N 38°28' E 015°54'0 0.0
2016-Jul-18 18:32N 38°28' E 015°54'0 0.0
2016-Jul-18 17:32N 38°28' E 015°54'0 0.0
2016-Jul-18 16:32N 38°28' E 015°54'0 0.0
2016-Jul-18 15:32N 38°28' E 015°54'5 5.3
2016-Jul-18 14:33N 38°27' E 015°48'8 7.8
2016-Jul-18 13:32N 38°25' E 015°38'9 9.5
2016-Jul-18 12:33N 38°23' E 015°27'10 9.5
2016-Jul-18 11:33N 38°21' E 015°15'9 9.4
2016-Jul-18 10:33N 38°19' E 015°03'9 9.4
2016-Jul-18 09:33N 38°18' E 014°51'9 9.2
2016-Jul-18 08:33N 38°18' E 014°39'9 8.9
2016-Jul-18 07:33N 38°18' E 014°28'27 8.6
2016-Jul-18 04:23N 38°18' E 013°53'7 8.5
2016-Jul-18 03:33N 38°19' E 013°44'8 8.5
2016-Jul-18 02:33N 38°19' E 013°34'9 8.8
2016-Jul-18 01:33N 38°19' E 013°22'9 8.8
2016-Jul-18 00:33N 38°19' E 013°11'9 8.9
2016-Jul-17 23:33N 38°17' E 013°00'9 8.6
2016-Jul-17 22:33N 38°15' E 012°49'9 8.4
2016-Jul-17 21:31N 38°14' E 012°38'8 8.3
2016-Jul-17 20:33N 38°13' E 012°28'10 8.5
2016-Jul-17 19:23N 38°12' E 012°16'8 9.0
2016-Jul-17 18:30N 38°11' E 012°06'98 8.9
2016-Jul-17 07:31N 37°58' E 010°03'8 8.6
2016-Jul-17 06:32N 37°57' E 009°52'27 8.9
2016-Jul-17 03:33N 37°53' E 009°19'10 9.0
2016-Jul-17 02:30N 37°51' E 009°07'9 8.8
2016-Jul-17 01:31N 37°51' E 008°56'  

Dump ship's entire track history